createdAt,value
2019-03-19T00:00:58.874Z,1.48
2019-03-19T00:06:01.392Z,1.44
2019-03-19T00:11:05.484Z,1.33
2019-03-19T00:13:33.974Z,1.32
2019-03-19T00:16:21.675Z,1.47
2019-03-19T00:21:43.169Z,1.59
2019-03-19T00:24:11.620Z,1.64
2019-03-19T00:29:13.774Z,1.89
2019-03-19T00:32:01.384Z,2.02
2019-03-19T00:34:29.835Z,2.08
2019-03-19T00:36:58.298Z,1.86
2019-03-19T00:39:26.778Z,1.91
2019-03-19T00:41:55.233Z,1.83
2019-03-19T00:44:23.669Z,1.78
2019-03-19T00:46:52.152Z,1.74
2019-03-19T00:49:20.605Z,1.91
2019-03-19T00:57:10.389Z,2.09
2019-03-19T00:59:38.837Z,2.17
2019-03-19T01:02:26.643Z,2.11
2019-03-19T01:04:55.092Z,1.95
2019-03-19T01:07:23.613Z,2.04
2019-03-19T01:09:52.098Z,2.18
2019-03-19T01:12:21.004Z,2.28
2019-03-19T01:14:49.453Z,2.18
2019-03-19T01:17:18.013Z,2.16
2019-03-19T01:19:46.462Z,2.17
2019-03-19T01:22:14.909Z,2.33
2019-03-19T01:24:43.422Z,2.28
2019-03-19T01:27:11.850Z,2.33
2019-03-19T01:29:40.302Z,2.37
2019-03-19T01:32:08.799Z,2.57
2019-03-19T01:34:37.246Z,2.62
2019-03-19T01:37:05.714Z,2.88
2019-03-19T01:39:34.273Z,2.83
2019-03-19T01:42:02.716Z,2.80
2019-03-19T01:44:31.236Z,2.62
2019-03-19T01:46:59.757Z,2.58
2019-03-19T01:49:28.213Z,2.63
2019-03-19T01:51:56.667Z,2.53
2019-03-19T01:54:25.180Z,2.52
2019-03-19T01:56:53.623Z,2.54
2019-03-19T01:59:22.077Z,2.46
2019-03-19T02:01:50.566Z,2.32
2019-03-19T02:04:19.008Z,2.06
2019-03-19T02:06:47.460Z,2.19
2019-03-19T02:11:49.885Z,1.98
2019-03-19T02:14:18.321Z,1.97
2019-03-19T02:19:20.679Z,1.65
2019-03-19T02:24:23.581Z,1.46
2019-03-19T02:29:25.915Z,1.46
2019-03-19T02:31:54.362Z,1.54
2019-03-19T02:34:22.851Z,1.58
2019-03-19T02:36:51.350Z,1.42
2019-03-19T02:39:19.744Z,1.56
2019-03-19T02:41:48.302Z,1.64
2019-03-19T02:44:16.756Z,1.37
2019-03-19T02:46:45.208Z,1.12
2019-03-19T02:51:48.099Z,1.44
2019-03-19T02:54:35.905Z,1.26
2019-03-19T02:57:04.450Z,1.32
2019-03-19T02:59:32.897Z,1.15
2019-03-19T03:02:01.392Z,0.77
2019-03-19T03:04:29.839Z,0.75
2019-03-19T03:06:58.356Z,0.72
2019-03-19T03:09:26.861Z,0.76
2019-03-19T03:11:55.314Z,0.68
2019-03-19T03:14:23.768Z,0.70
2019-03-19T03:16:52.330Z,0.75
2019-03-19T03:19:20.784Z,0.58
2019-03-19T03:21:49.241Z,0.46
2019-03-19T03:24:18.014Z,0.51
2019-03-19T03:26:48.609Z,0.50
2019-03-19T03:29:35.891Z,0.56
2019-03-19T03:32:23.681Z,0.67
2019-03-19T03:37:45.853Z,0.37
2019-03-19T03:40:54.221Z,0.29
2019-03-19T03:43:22.671Z,0.28
2019-03-19T03:45:51.122Z,0.19
2019-03-19T03:50:53.937Z,0.01
2019-03-19T03:53:22.423Z,0.03
2019-03-19T03:55:50.880Z,-0.08
2019-03-19T03:58:19.339Z,-0.12
2019-03-19T04:03:41.138Z,0.21
2019-03-19T04:06:28.938Z,0.25
2019-03-19T04:08:57.388Z,0.28
2019-03-19T04:11:25.862Z,0.20
2019-03-19T04:13:54.328Z,0.09
2019-03-19T04:16:22.780Z,0.02
2019-03-19T04:19:10.484Z,-0.02
2019-03-19T04:21:38.942Z,-0.02
2019-03-19T04:24:07.392Z,-0.14
2019-03-19T04:26:55.064Z,-0.07
2019-03-19T04:29:23.584Z,0.10
2019-03-19T04:31:52.034Z,0.04
2019-03-19T04:34:20.542Z,0.10
2019-03-19T04:36:49.087Z,-0.01
2019-03-19T04:39:17.549Z,-0.17
2019-03-19T04:41:46.056Z,-0.26
2019-03-19T04:44:14.508Z,-0.23
2019-03-19T04:46:42.964Z,-0.43
2019-03-19T04:49:11.448Z,-0.23
2019-03-19T04:51:39.901Z,-0.32
2019-03-19T04:54:27.783Z,-0.49
2019-03-19T04:56:56.241Z,-0.38
2019-03-19T04:59:24.692Z,-0.45
2019-03-19T05:02:12.426Z,-0.54
2019-03-19T05:05:00.067Z,-0.45
2019-03-19T05:07:28.562Z,-0.50
2019-03-19T05:09:57.016Z,-0.40
2019-03-19T05:12:25.529Z,-0.34
2019-03-19T05:14:53.959Z,-0.35
2019-03-19T05:17:22.412Z,-0.44
2019-03-19T05:19:50.855Z,-0.35
2019-03-19T05:22:19.345Z,-0.38
2019-03-19T05:25:07.706Z,-0.46
2019-03-19T05:30:50.622Z,-0.50
2019-03-19T05:35:53.314Z,-0.53
2019-03-19T05:38:21.778Z,-0.42
2019-03-19T05:40:50.277Z,-0.72
2019-03-19T05:43:18.733Z,-0.62
2019-03-19T05:46:06.546Z,-0.64
2019-03-19T05:48:34.999Z,-0.56
2019-03-19T05:51:22.758Z,-0.70
2019-03-19T05:53:51.211Z,-0.69
2019-03-19T05:56:19.673Z,-0.59
2019-03-19T05:58:48.166Z,-0.57
2019-03-19T06:01:35.747Z,-0.39
2019-03-19T06:06:58.561Z,-0.36
2019-03-19T06:14:51.728Z,0.09
2019-03-19T06:17:20.181Z,0.09
2019-03-19T06:19:48.671Z,0.11
2019-03-19T06:22:17.120Z,0.27
2019-03-19T06:24:45.574Z,0.44
2019-03-19T06:27:14.053Z,0.61
2019-03-19T06:29:42.500Z,0.71
2019-03-19T06:32:10.954Z,0.74
2019-03-19T06:34:39.434Z,0.69
2019-03-19T06:37:07.890Z,0.78
2019-03-19T06:39:36.337Z,0.91
2019-03-19T06:42:24.406Z,1.10
2019-03-19T06:45:12.098Z,1.06
2019-03-19T06:47:40.586Z,1.19
2019-03-19T06:50:28.435Z,1.19
2019-03-19T06:52:56.931Z,1.27
2019-03-19T06:55:25.372Z,1.34
2019-03-19T07:00:46.991Z,1.52
2019-03-19T07:03:15.447Z,1.62
2019-03-19T07:05:43.937Z,1.72
2019-03-19T07:08:31.708Z,1.86
2019-03-19T07:11:00.190Z,1.83
2019-03-19T07:13:47.829Z,1.95
2019-03-19T07:16:16.314Z,2.02
2019-03-19T07:18:44.763Z,2.08
2019-03-19T07:21:13.209Z,2.21
2019-03-19T07:23:41.702Z,2.23
2019-03-19T07:26:10.161Z,2.42
2019-03-19T07:28:38.619Z,2.54
2019-03-19T07:31:07.102Z,2.94
2019-03-19T07:33:35.557Z,2.62
2019-03-19T07:36:06.195Z,2.56
2019-03-19T07:38:53.610Z,2.72
2019-03-19T07:41:41.249Z,2.91
2019-03-19T07:44:09.735Z,2.92
2019-03-19T07:46:38.186Z,3.42
2019-03-19T07:49:06.634Z,3.52
2019-03-19T07:51:54.323Z,3.48
2019-03-19T07:54:22.776Z,3.26
2019-03-19T07:56:51.227Z,3.46
2019-03-19T07:59:19.717Z,3.46
2019-03-19T08:01:48.180Z,3.49
2019-03-19T08:04:16.621Z,3.92
2019-03-19T08:07:04.356Z,3.76
2019-03-19T08:09:32.897Z,3.64
2019-03-19T08:12:01.329Z,3.83
2019-03-19T08:14:29.821Z,3.69
2019-03-19T08:16:58.275Z,3.96
2019-03-19T08:19:26.728Z,4.36
2019-03-19T08:24:29.318Z,4.53
2019-03-19T08:26:57.776Z,4.59
2019-03-19T08:29:26.287Z,4.82
2019-03-19T08:32:14.054Z,4.82
2019-03-19T08:34:42.536Z,4.84
2019-03-19T08:37:10.985Z,4.89
2019-03-19T08:42:33.165Z,5.02
2019-03-19T08:47:35.458Z,5.51
2019-03-19T08:50:43.905Z,5.72
2019-03-19T08:53:12.357Z,5.73
2019-03-19T08:56:01.160Z,5.78
2019-03-19T08:58:30.406Z,5.91
2019-03-19T09:00:58.856Z,6.14
2019-03-19T09:03:27.351Z,5.78
2019-03-19T09:05:55.802Z,6.28
2019-03-19T09:08:24.267Z,6.21
2019-03-19T09:10:52.754Z,6.35
2019-03-19T09:13:40.460Z,6.43
2019-03-19T09:16:08.949Z,6.74
2019-03-19T09:18:37.407Z,6.69
2019-03-19T09:21:05.869Z,7.11
2019-03-19T09:26:08.039Z,7.03
2019-03-19T09:28:55.714Z,7.43
2019-03-19T09:31:24.312Z,7.68
2019-03-19T09:33:52.768Z,7.41
2019-03-19T09:36:40.534Z,7.58
2019-03-19T09:39:28.309Z,7.33
2019-03-19T09:44:30.823Z,7.86
2019-03-19T09:46:59.289Z,7.86
2019-03-19T09:52:02.021Z,8.52
2019-03-19T09:57:23.907Z,8.12
2019-03-19T09:59:52.393Z,8.74
2019-03-19T10:02:20.852Z,8.50
2019-03-19T10:04:49.296Z,8.64
2019-03-19T10:07:17.781Z,8.33
2019-03-19T10:09:46.229Z,8.49
2019-03-19T10:12:14.701Z,8.36
2019-03-19T10:14:43.196Z,8.47
2019-03-19T10:17:30.829Z,8.85
2019-03-19T10:19:59.308Z,8.48
2019-03-19T10:22:27.772Z,8.74
2019-03-19T10:28:03.085Z,8.93
2019-03-19T10:30:50.861Z,8.40
2019-03-19T10:33:38.815Z,8.99
2019-03-19T10:36:07.374Z,8.80
2019-03-19T10:38:35.796Z,8.83
2019-03-19T10:41:04.391Z,8.86
2019-03-19T10:43:32.842Z,8.77
2019-03-19T10:46:20.510Z,9.05
2019-03-19T10:49:08.178Z,8.43
2019-03-19T10:54:10.236Z,8.27
2019-03-19T10:56:39.079Z,8.31
2019-03-19T10:59:08.898Z,8.57
2019-03-19T11:01:37.353Z,8.33
2019-03-19T11:04:05.875Z,8.63
2019-03-19T11:06:34.369Z,8.82
2019-03-19T11:14:25.732Z,8.89
2019-03-19T11:20:45.618Z,9.06
2019-03-19T11:23:14.931Z,8.98
2019-03-19T11:25:53.950Z,8.68
2019-03-19T11:28:13.927Z,9.05
2019-03-19T11:30:43.755Z,9.48
2019-03-19T11:33:31.454Z,10.18
2019-03-19T11:36:19.140Z,9.89
2019-03-19T11:38:47.657Z,9.72
2019-03-19T11:41:16.110Z,9.25
2019-03-19T11:46:18.228Z,9.54
2019-03-19T11:51:20.640Z,9.86
2019-03-19T11:53:49.163Z,10.24
2019-03-19T11:56:17.614Z,10.49
2019-03-19T11:58:46.067Z,10.56
2019-03-19T12:01:34.131Z,10.63
2019-03-19T12:04:21.699Z,10.39
2019-03-19T12:06:50.199Z,10.79
2019-03-19T12:09:18.646Z,10.53
2019-03-19T12:11:47.106Z,10.44
2019-03-19T12:14:15.675Z,10.51
2019-03-19T12:16:44.127Z,10.93
2019-03-19T12:19:12.590Z,10.19
2019-03-19T12:24:15.031Z,10.23
2019-03-19T12:26:43.482Z,10.24
2019-03-19T12:29:31.182Z,9.84
2019-03-19T12:31:59.707Z,10.10
2019-03-19T12:34:47.470Z,10.19
2019-03-19T12:37:15.926Z,10.08
2019-03-19T12:39:44.379Z,10.38
2019-03-19T12:44:47.386Z,10.59
2019-03-19T12:47:15.841Z,10.86
2019-03-19T12:52:18.897Z,10.96
2019-03-19T12:57:21.678Z,10.98
2019-03-19T12:59:50.130Z,11.27
2019-03-19T13:02:18.625Z,10.88
2019-03-19T13:05:06.269Z,10.58
2019-03-19T13:07:34.753Z,10.98
2019-03-19T13:10:43.138Z,10.69
2019-03-19T13:15:46.063Z,11.14
2019-03-19T13:18:14.552Z,11.16
2019-03-19T13:23:52.537Z,11.39
2019-03-19T13:26:21.001Z,10.78
2019-03-19T13:28:49.469Z,10.22
2019-03-19T13:31:17.961Z,10.63
2019-03-19T13:33:46.419Z,10.32
2019-03-19T13:36:14.883Z,10.55
2019-03-19T13:41:17.234Z,11.22
2019-03-19T13:44:04.835Z,11.34
2019-03-19T13:46:33.287Z,11.31
2019-03-19T13:49:01.737Z,10.96
2019-03-19T13:51:30.277Z,10.77
2019-03-19T13:53:58.806Z,11.15
2019-03-19T13:56:27.269Z,11.20
2019-03-19T14:01:30.207Z,11.66
2019-03-19T14:03:58.665Z,11.50
2019-03-19T14:06:27.215Z,11.76
2019-03-19T14:11:52.444Z,11.42
2019-03-19T14:14:20.899Z,11.95
2019-03-19T14:17:29.322Z,11.82
2019-03-19T14:19:57.796Z,11.69
2019-03-19T14:22:26.246Z,11.82
2019-03-19T14:27:29.162Z,11.81
2019-03-19T14:29:57.650Z,11.80
2019-03-19T14:32:26.112Z,11.81
2019-03-19T14:34:54.565Z,11.98
2019-03-19T14:37:23.064Z,11.37
2019-03-19T14:39:51.515Z,11.45
2019-03-19T14:42:39.333Z,11.66
2019-03-19T14:45:47.702Z,11.53
2019-03-19T14:48:16.195Z,11.73
2019-03-19T14:51:03.979Z,11.66
2019-03-19T14:56:26.241Z,11.48
2019-03-19T14:58:54.764Z,11.25
2019-03-19T15:01:23.216Z,11.68
2019-03-19T15:03:51.693Z,11.90
2019-03-19T15:06:20.186Z,11.71
2019-03-19T15:08:48.665Z,11.77
2019-03-19T15:11:17.113Z,11.81
2019-03-19T15:16:19.553Z,11.22
2019-03-19T15:18:48.004Z,11.19
2019-03-19T15:21:16.524Z,11.50
2019-03-19T15:23:44.973Z,11.17
2019-03-19T15:26:13.427Z,11.41
2019-03-19T15:28:41.922Z,11.18
2019-03-19T15:31:30.247Z,11.14
2019-03-19T15:36:33.863Z,11.21
2019-03-19T15:44:43.622Z,10.89
2019-03-19T15:47:12.123Z,11.13
2019-03-19T15:49:40.605Z,11.30
2019-03-19T15:52:09.132Z,11.14
2019-03-19T15:54:37.615Z,11.35
2019-03-19T15:57:06.135Z,11.18
2019-03-19T15:59:34.588Z,11.42
2019-03-19T16:02:03.067Z,11.17
2019-03-19T16:04:31.522Z,10.94
2019-03-19T16:06:59.979Z,10.93
2019-03-19T16:09:28.495Z,10.95
2019-03-19T16:11:56.947Z,11.32
2019-03-19T16:14:25.501Z,11.18
2019-03-19T16:19:27.874Z,11.53
2019-03-19T16:21:56.335Z,11.55
2019-03-19T16:24:24.821Z,11.25
2019-03-19T16:26:53.338Z,11.23
2019-03-19T16:29:21.796Z,11.13
2019-03-19T16:31:51.199Z,11.13
2019-03-19T16:34:21.528Z,11.08
2019-03-19T16:36:50.065Z,11.11
2019-03-19T16:39:18.587Z,11.10
2019-03-19T16:41:47.060Z,11.06
2019-03-19T16:44:15.517Z,11.04
2019-03-19T16:46:44.258Z,10.93
2019-03-19T16:49:12.792Z,10.82
2019-03-19T16:51:41.328Z,10.73
2019-03-19T16:54:09.978Z,10.65
2019-03-19T16:56:38.425Z,10.63
2019-03-19T16:59:06.888Z,10.52
2019-03-19T17:01:35.378Z,10.47
2019-03-19T17:04:04.026Z,10.40
2019-03-19T17:06:32.497Z,10.27
2019-03-19T17:09:01.059Z,10.37
2019-03-19T17:11:29.518Z,10.44
2019-03-19T17:13:57.970Z,10.26
2019-03-19T17:16:28.192Z,10.13
2019-03-19T17:18:56.675Z,10.13
2019-03-19T17:21:25.094Z,9.95
2019-03-19T17:23:53.623Z,9.88
2019-03-19T17:26:22.100Z,9.76
2019-03-19T17:28:50.549Z,9.85
2019-03-19T17:31:19.135Z,9.62
2019-03-19T17:33:47.604Z,9.34
2019-03-19T17:36:16.046Z,9.55
2019-03-19T17:38:44.531Z,9.52
2019-03-19T17:41:12.985Z,9.15
2019-03-19T17:43:41.426Z,9.08
2019-03-19T17:46:10.001Z,8.89
2019-03-19T17:48:38.450Z,8.95
2019-03-19T17:51:06.994Z,8.80
2019-03-19T17:53:35.546Z,8.60
2019-03-19T17:56:04.172Z,8.86
2019-03-19T17:58:32.641Z,8.55
2019-03-19T18:01:01.226Z,8.61
2019-03-19T18:03:29.673Z,8.50
2019-03-19T18:05:58.122Z,8.39
2019-03-19T18:08:26.729Z,8.23
2019-03-19T18:10:55.178Z,8.07
2019-03-19T18:13:23.699Z,7.90
2019-03-19T18:15:52.211Z,7.68
2019-03-19T18:18:20.669Z,7.60
2019-03-19T18:20:49.184Z,7.20
2019-03-19T18:23:17.809Z,7.07
2019-03-19T18:25:46.233Z,6.59
2019-03-19T18:28:14.679Z,6.22
2019-03-19T18:30:43.505Z,6.33
2019-03-19T18:33:11.961Z,6.49
2019-03-19T18:35:40.409Z,6.56
2019-03-19T18:38:09.063Z,6.52
2019-03-19T18:40:37.516Z,6.47
2019-03-19T18:43:06.108Z,6.44
2019-03-19T18:45:34.701Z,6.68
2019-03-19T18:48:03.161Z,6.88
2019-03-19T18:50:31.690Z,6.77
2019-03-19T18:53:00.376Z,6.57
2019-03-19T18:55:28.822Z,6.48
2019-03-19T18:57:57.275Z,6.51
2019-03-19T19:00:25.791Z,6.29
2019-03-19T19:02:54.237Z,6.18
2019-03-19T19:05:24.088Z,6.12
2019-03-19T19:07:52.627Z,5.95
2019-03-19T19:10:21.726Z,5.98
2019-03-19T19:12:50.630Z,5.90
2019-03-19T19:15:25.552Z,5.85
2019-03-19T19:17:54.078Z,5.84
2019-03-19T19:20:22.628Z,5.71
2019-03-19T19:22:51.249Z,5.77
2019-03-19T19:25:21.812Z,5.64
2019-03-19T19:27:50.335Z,5.79
2019-03-19T19:30:20.952Z,5.74
2019-03-19T19:33:00.450Z,5.63
2019-03-19T19:35:19.872Z,5.43
2019-03-19T19:37:48.447Z,5.53
2019-03-19T19:40:17.742Z,5.19
2019-03-19T19:42:46.337Z,5.06
2019-03-19T19:45:17.093Z,4.97
2019-03-19T19:47:45.783Z,4.91
2019-03-19T19:50:23.859Z,4.96
2019-03-19T19:52:52.324Z,5.14
2019-03-19T19:55:20.775Z,4.97
2019-03-19T19:57:49.329Z,4.87
2019-03-19T20:00:19.888Z,4.60
2019-03-19T20:02:48.502Z,4.70
2019-03-19T20:05:17.241Z,4.81
2019-03-19T20:07:45.984Z,4.73
2019-03-19T20:10:20.126Z,4.84
2019-03-19T20:12:48.689Z,4.89
2019-03-19T20:15:17.479Z,5.20
2019-03-19T20:17:45.994Z,4.64
2019-03-19T20:20:23.178Z,4.36
2019-03-19T20:22:51.631Z,4.97
2019-03-19T20:25:20.183Z,4.82
2019-03-19T20:27:48.675Z,4.64
2019-03-19T20:30:27.320Z,4.41
2019-03-19T20:32:55.872Z,4.23
2019-03-19T20:35:24.456Z,4.16
2019-03-19T20:37:52.975Z,4.16
2019-03-19T20:40:21.533Z,3.93
2019-03-19T20:42:50.050Z,3.75
2019-03-19T20:45:23.941Z,3.81
2019-03-19T20:47:52.650Z,3.74
2019-03-19T20:50:38.219Z,3.68
2019-03-19T20:53:07.323Z,3.49
2019-03-19T20:55:35.880Z,3.38
2019-03-19T20:58:04.782Z,3.50
2019-03-19T21:00:33.487Z,3.17
2019-03-19T21:03:01.941Z,2.95
2019-03-19T21:05:30.392Z,2.81
2019-03-19T21:07:59.031Z,2.87
2019-03-19T21:10:27.614Z,2.84
2019-03-19T21:12:56.069Z,2.89
2019-03-19T21:15:27.239Z,2.86
2019-03-19T21:17:55.823Z,2.76
2019-03-19T21:20:24.434Z,2.83
2019-03-19T21:22:53.017Z,3.01
2019-03-19T21:25:21.705Z,2.73
2019-03-19T21:27:50.296Z,2.69
2019-03-19T21:30:21.302Z,2.68
2019-03-19T21:32:49.885Z,2.66
2019-03-19T21:35:23.013Z,2.57
2019-03-19T21:37:52.076Z,2.93
2019-03-19T21:40:20.586Z,2.95
2019-03-19T21:42:49.201Z,2.51
2019-03-19T21:45:19.034Z,2.44
2019-03-19T21:47:47.548Z,2.33
2019-03-19T21:50:20.078Z,2.30
2019-03-19T21:53:28.643Z,2.27
2019-03-19T21:56:16.419Z,2.23
2019-03-19T22:01:18.803Z,2.01
2019-03-19T22:04:27.209Z,2.00
2019-03-19T22:06:55.654Z,2.03
2019-03-19T22:09:24.111Z,1.89
2019-03-19T22:11:52.628Z,1.80
2019-03-19T22:14:21.078Z,1.95
2019-03-19T22:16:49.701Z,1.72
2019-03-19T22:19:18.250Z,1.82
2019-03-19T22:21:46.698Z,1.81
2019-03-19T22:24:15.145Z,1.61
2019-03-19T22:26:43.663Z,1.54
2019-03-19T22:29:12.825Z,1.51
2019-03-19T22:31:41.406Z,1.71
2019-03-19T22:34:14.170Z,1.71
2019-03-19T22:36:40.194Z,1.64
2019-03-19T22:39:09.393Z,1.64
2019-03-19T22:41:37.962Z,1.48
2019-03-19T22:44:06.477Z,1.41
2019-03-19T22:46:34.993Z,1.35
2019-03-19T22:49:03.611Z,1.31
2019-03-19T22:51:32.048Z,1.23
2019-03-19T22:54:00.509Z,1.28
2019-03-19T22:56:28.996Z,1.38
2019-03-19T22:58:57.445Z,1.19
2019-03-19T23:01:25.982Z,1.40
2019-03-19T23:03:54.553Z,1.30
2019-03-19T23:06:23.007Z,1.21
2019-03-19T23:08:51.531Z,1.30
2019-03-19T23:11:20.025Z,1.28
2019-03-19T23:13:48.833Z,1.31
2019-03-19T23:16:17.422Z,1.15
2019-03-19T23:18:45.905Z,1.26
2019-03-19T23:21:14.497Z,1.28
2019-03-19T23:23:42.942Z,1.26
2019-03-19T23:26:11.551Z,0.96
2019-03-19T23:28:40.002Z,0.98
2019-03-19T23:31:08.450Z,1.08
2019-03-19T23:33:36.936Z,1.10
2019-03-19T23:36:05.517Z,1.08
2019-03-19T23:38:34.830Z,0.95
2019-03-19T23:41:03.315Z,0.72
2019-03-19T23:43:31.902Z,0.60
2019-03-19T23:46:00.433Z,0.53
2019-03-19T23:48:29.010Z,0.68
2019-03-19T23:50:57.462Z,0.68
2019-03-19T23:53:25.977Z,0.79
2019-03-19T23:55:54.478Z,0.82
2019-03-19T23:58:22.931Z,0.74
